sensor_id;sensor_type;location;lat;lon;timestamp;pressure;altitude;pressure_sealevel;temperature;humidity
13486;BME280;6815;59.336;17.998;2022-07-23T00:00:06;100281.28;;;15.26;100.00
13486;BME280;6815;59.336;17.998;2022-07-23T00:02:33;100271.94;;;15.38;100.00
13486;BME280;6815;59.336;17.998;2022-07-23T00:04:58;100272.16;;;15.33;100.00
13486;BME280;6815;59.336;17.998;2022-07-23T00:07:24;100246.03;;;15.00;100.00
13486;BME280;6815;59.336;17.998;2022-07-23T00:09:49;100215.81;;;14.83;100.00
13486;BME280;6815;59.336;17.998;2022-07-23T00:12:15;100253.63;;;15.10;100.00
13486;BME280;6815;59.336;17.998;2022-07-23T00:14:40;100273.31;;;15.26;100.00
13486;BME280;6815;59.336;17.998;2022-07-23T00:17:06;100262.41;;;15.12;100.00
13486;BME280;6815;59.336;17.998;2022-07-23T00:19:31;100263.84;;;14.98;100.00
13486;BME280;6815;59.336;17.998;2022-07-23T00:21:57;100273.22;;;15.07;100.00
13486;BME280;6815;59.336;17.998;2022-07-23T00:24:22;100284.84;;;15.04;100.00
13486;BME280;6815;59.336;17.998;2022-07-23T00:26:47;100208.03;;;14.56;100.00
13486;BME280;6815;59.336;17.998;2022-07-23T00:29:13;100281.84;;;14.92;100.00
13486;BME280;6815;59.336;17.998;2022-07-23T00:31:38;100208.28;;;14.72;100.00
13486;BME280;6815;59.336;17.998;2022-07-23T00:34:03;100273.06;;;14.90;100.00
13486;BME280;6815;59.336;17.998;2022-07-23T00:36:29;100279.47;;;14.84;100.00
13486;BME280;6815;59.336;17.998;2022-07-23T00:38:56;100254.22;;;14.96;98.80
13486;BME280;6815;59.336;17.998;2022-07-23T00:41:21;100158.53;;;14.09;100.00
13486;BME280;6815;59.336;17.998;2022-07-23T00:43:47;100282.94;;;14.64;100.00
13486;BME280;6815;59.336;17.998;2022-07-23T00:46:12;100234.91;;;14.47;100.00
13486;BME280;6815;59.336;17.998;2022-07-23T00:48:38;100261.44;;;14.70;100.00
13486;BME280;6815;59.336;17.998;2022-07-23T00:51:03;100245.72;;;14.42;100.00
13486;BME280;6815;59.336;17.998;2022-07-23T00:53:29;100261.84;;;14.60;100.00
13486;BME280;6815;59.336;17.998;2022-07-23T00:55:55;100274.59;;;14.50;100.00
13486;BME280;6815;59.336;17.998;2022-07-23T00:58:21;100252.44;;;14.74;100.00
13486;BME280;6815;59.336;17.998;2022-07-23T01:00:46;100254.56;;;14.41;100.00
13486;BME280;6815;59.336;17.998;2022-07-23T01:03:12;100241.47;;;14.15;100.00
13486;BME280;6815;59.336;17.998;2022-07-23T01:05:37;100266.13;;;14.40;100.00
13486;BME280;6815;59.336;17.998;2022-07-23T01:08:05;100289.06;;;14.41;100.00
13486;BME280;6815;59.336;17.998;2022-07-23T01:10:30;100254.41;;;14.46;100.00
13486;BME280;6815;59.336;17.998;2022-07-23T01:13:00;100283.25;;;14.31;100.00
13486;BME280;6815;59.336;17.998;2022-07-23T01:15:26;100238.00;;;13.89;100.00
13486;BME280;6815;59.336;17.998;2022-07-23T01:17:51;100218.72;;;13.60;100.00
13486;BME280;6815;59.336;17.998;2022-07-23T01:20:17;100238.34;;;13.80;100.00
13486;BME280;6815;59.336;17.998;2022-07-23T01:22:44;100227.44;;;13.87;100.00
13486;BME280;6815;59.336;17.998;2022-07-23T01:25:10;100200.38;;;13.79;100.00
13486;BME280;6815;59.336;17.998;2022-07-23T01:27:35;100269.78;;;14.14;100.00
13486;BME280;6815;59.336;17.998;2022-07-23T01:30:01;100277.56;;;14.19;100.00
13486;BME280;6815;59.336;17.998;2022-07-23T01:32:26;100278.81;;;14.08;100.00
13486;BME280;6815;59.336;17.998;2022-07-23T01:34:52;100258.88;;;13.98;100.00
13486;BME280;6815;59.336;17.998;2022-07-23T01:37:17;100215.34;;;13.32;100.00
13486;BME280;6815;59.336;17.998;2022-07-23T01:39:43;100267.72;;;13.74;100.00
13486;BME280;6815;59.336;17.998;2022-07-23T01:42:08;100260.59;;;13.76;100.00
13486;BME280;6815;59.336;17.998;2022-07-23T01:44:33;100264.84;;;14.03;100.00
13486;BME280;6815;59.336;17.998;2022-07-23T01:47:00;100206.25;;;13.39;100.00
13486;BME280;6815;59.336;17.998;2022-07-23T01:49:26;100228.38;;;13.10;100.00
13486;BME280;6815;59.336;17.998;2022-07-23T01:51:51;100268.41;;;13.29;100.00
13486;BME280;6815;59.336;17.998;2022-07-23T01:54:30;100285.50;;;13.45;100.00
13486;BME280;6815;59.336;17.998;2022-07-23T01:56:56;100227.31;;;13.15;100.00
13486;BME280;6815;59.336;17.998;2022-07-23T01:59:22;100225.09;;;13.03;100.00
13486;BME280;6815;59.336;17.998;2022-07-23T02:01:48;100200.25;;;12.81;100.00
13486;BME280;6815;59.336;17.998;2022-07-23T02:04:16;100275.44;;;13.30;100.00
13486;BME280;6815;59.336;17.998;2022-07-23T02:06:42;100282.03;;;13.16;100.00
13486;BME280;6815;59.336;17.998;2022-07-23T02:09:07;100208.91;;;12.86;100.00
13486;BME280;6815;59.336;17.998;2022-07-23T02:11:33;100264.78;;;13.31;100.00
13486;BME280;6815;59.336;17.998;2022-07-23T02:13:58;100253.34;;;13.03;100.00
13486;BME280;6815;59.336;17.998;2022-07-23T02:16:23;100252.28;;;13.08;100.00
13486;BME280;6815;59.336;17.998;2022-07-23T02:18:49;100254.00;;;13.09;100.00
13486;BME280;6815;59.336;17.998;2022-07-23T02:21:14;100202.41;;;12.69;100.00
13486;BME280;6815;59.336;17.998;2022-07-23T02:23:40;100257.28;;;13.17;100.00
13486;BME280;6815;59.336;17.998;2022-07-23T02:26:05;100212.78;;;12.76;100.00
13486;BME280;6815;59.336;17.998;2022-07-23T02:28:30;100227.34;;;12.89;100.00
13486;BME280;6815;59.336;17.998;2022-07-23T02:30:56;100250.97;;;12.95;100.00
13486;BME280;6815;59.336;17.998;2022-07-23T02:33:21;100189.28;;;12.65;100.00
13486;BME280;6815;59.336;17.998;2022-07-23T02:35:47;100254.69;;;12.88;100.00
13486;BME280;6815;59.336;17.998;2022-07-23T02:38:13;100239.06;;;12.82;100.00
13486;BME280;6815;59.336;17.998;2022-07-23T02:40:38;100245.69;;;12.67;100.00
13486;BME280;6815;59.336;17.998;2022-07-23T02:43:03;100256.16;;;12.98;100.00
13486;BME280;6815;59.336;17.998;2022-07-23T02:45:29;100250.91;;;12.96;100.00
13486;BME280;6815;59.336;17.998;2022-07-23T02:47:54;100184.03;;;12.37;100.00
13486;BME280;6815;59.336;17.998;2022-07-23T02:50:20;100191.56;;;12.49;100.00
13486;BME280;6815;59.336;17.998;2022-07-23T02:52:45;100269.88;;;12.83;100.00
13486;BME280;6815;59.336;17.998;2022-07-23T02:55:12;100267.63;;;12.70;100.00
13486;BME280;6815;59.336;17.998;2022-07-23T02:57:38;100176.34;;;12.29;100.00
13486;BME280;6815;59.336;17.998;2022-07-23T03:00:05;100211.78;;;12.52;100.00
13486;BME280;6815;59.336;17.998;2022-07-23T03:02:31;100255.81;;;12.81;100.00
13486;BME280;6815;59.336;17.998;2022-07-23T03:04:56;100228.78;;;12.44;100.00
13486;BME280;6815;59.336;17.998;2022-07-23T03:07:22;100242.97;;;12.68;100.00
13486;BME280;6815;59.336;17.998;2022-07-23T03:09:47;100234.84;;;12.74;100.00
13486;BME280;6815;59.336;17.998;2022-07-23T03:12:13;100229.56;;;12.74;100.00
13486;BME280;6815;59.336;17.998;2022-07-23T03:14:39;100295.16;;;12.93;100.00
13486;BME280;6815;59.336;17.998;2022-07-23T03:17:04;100213.66;;;12.48;100.00
13486;BME280;6815;59.336;17.998;2022-07-23T03:19:29;100257.63;;;12.52;100.00
13486;BME280;6815;59.336;17.998;2022-07-23T03:21:55;100172.91;;;11.97;100.00
13486;BME280;6815;59.336;17.998;2022-07-23T03:24:20;100286.06;;;12.73;100.00
13486;BME280;6815;59.336;17.998;2022-07-23T03:26:46;100265.63;;;12.50;100.00
13486;BME280;6815;59.336;17.998;2022-07-23T03:29:11;100228.91;;;12.40;100.00
13486;BME280;6815;59.336;17.998;2022-07-23T03:31:36;100293.28;;;12.68;100.00
13486;BME280;6815;59.336;17.998;2022-07-23T03:34:02;100186.63;;;12.10;100.00
13486;BME280;6815;59.336;17.998;2022-07-23T03:36:27;100148.69;;;11.81;100.00
13486;BME280;6815;59.336;17.998;2022-07-23T03:38:53;100291.34;;;12.73;100.00
13486;BME280;6815;59.336;17.998;2022-07-23T03:41:19;100279.06;;;12.72;100.00
13486;BME280;6815;59.336;17.998;2022-07-23T03:43:45;100266.22;;;12.59;100.00
13486;BME280;6815;59.336;17.998;2022-07-23T03:46:12;100233.25;;;12.41;100.00
13486;BME280;6815;59.336;17.998;2022-07-23T03:48:37;100286.19;;;12.69;100.00
13486;BME280;6815;59.336;17.998;2022-07-23T03:51:03;100236.66;;;12.46;100.00
13486;BME280;6815;59.336;17.998;2022-07-23T03:53:28;100223.41;;;12.46;100.00
13486;BME280;6815;59.336;17.998;2022-07-23T03:55:54;100272.97;;;12.69;100.00
13486;BME280;6815;59.336;17.998;2022-07-23T03:58:20;100204.66;;;12.25;100.00
13486;BME280;6815;59.336;17.998;2022-07-23T04:00:46;100220.38;;;12.30;100.00
13486;BME280;6815;59.336;17.998;2022-07-23T04:03:11;100287.41;;;12.59;100.00
13486;BME280;6815;59.336;17.998;2022-07-23T04:05:37;100234.28;;;12.37;100.00
13486;BME280;6815;59.336;17.998;2022-07-23T04:08:02;100290.97;;;12.86;100.00
13486;BME280;6815;59.336;17.998;2022-07-23T04:10:28;100229.06;;;12.35;100.00
13486;BME280;6815;59.336;17.998;2022-07-23T04:12:53;100282.59;;;12.71;100.00
13486;BME280;6815;59.336;17.998;2022-07-23T04:15:18;100267.19;;;12.56;100.00
13486;BME280;6815;59.336;17.998;2022-07-23T04:17:44;100251.75;;;12.70;100.00
13486;BME280;6815;59.336;17.998;2022-07-23T04:20:11;100239.72;;;12.60;100.00
13486;BME280;6815;59.336;17.998;2022-07-23T04:22:37;100246.31;;;12.47;100.00
13486;BME280;6815;59.336;17.998;2022-07-23T04:25:02;100253.28;;;12.49;100.00
13486;BME280;6815;59.336;17.998;2022-07-23T04:27:28;100243.91;;;12.39;100.00
13486;BME280;6815;59.336;17.998;2022-07-23T04:29:53;100226.44;;;12.34;100.00
13486;BME280;6815;59.336;17.998;2022-07-23T04:32:19;100268.84;;;12.60;100.00
13486;BME280;6815;59.336;17.998;2022-07-23T04:34:44;100213.22;;;12.34;100.00
13486;BME280;6815;59.336;17.998;2022-07-23T04:37:09;100240.25;;;12.43;100.00
13486;BME280;6815;59.336;17.998;2022-07-23T04:39:35;100259.72;;;12.41;100.00
13486;BME280;6815;59.336;17.998;2022-07-23T04:42:00;100296.56;;;12.77;100.00
13486;BME280;6815;59.336;17.998;2022-07-23T04:44:25;100269.50;;;12.67;100.00
13486;BME280;6815;59.336;17.998;2022-07-23T04:46:51;100244.56;;;12.46;100.00
13486;BME280;6815;59.336;17.998;2022-07-23T04:49:16;100270.72;;;12.57;100.00
13486;BME280;6815;59.336;17.998;2022-07-23T04:51:42;100298.28;;;12.78;100.00
13486;BME280;6815;59.336;17.998;2022-07-23T04:54:08;100284.66;;;12.62;100.00
13486;BME280;6815;59.336;17.998;2022-07-23T04:56:34;100254.31;;;12.44;100.00
13486;BME280;6815;59.336;17.998;2022-07-23T04:58:59;100231.88;;;12.29;100.00
13486;BME280;6815;59.336;17.998;2022-07-23T05:01:24;100251.56;;;12.48;100.00
13486;BME280;6815;59.336;17.998;2022-07-23T05:03:50;100270.13;;;12.75;100.00
13486;BME280;6815;59.336;17.998;2022-07-23T05:06:15;100231.63;;;12.37;100.00
13486;BME280;6815;59.336;17.998;2022-07-23T05:08:42;100227.16;;;12.39;100.00
13486;BME280;6815;59.336;17.998;2022-07-23T05:11:08;100248.28;;;12.40;100.00
13486;BME280;6815;59.336;17.998;2022-07-23T05:13:33;100283.03;;;12.58;100.00
13486;BME280;6815;59.336;17.998;2022-07-23T05:15:59;100253.91;;;12.30;100.00
13486;BME280;6815;59.336;17.998;2022-07-23T05:18:24;100256.78;;;12.50;100.00
13486;BME280;6815;59.336;17.998;2022-07-23T05:20:49;100284.13;;;12.50;100.00
13486;BME280;6815;59.336;17.998;2022-07-23T05:23:15;100272.56;;;12.53;100.00
13486;BME280;6815;59.336;17.998;2022-07-23T05:25:40;100313.50;;;12.71;100.00
13486;BME280;6815;59.336;17.998;2022-07-23T05:28:06;100284.75;;;12.59;100.00
13486;BME280;6815;59.336;17.998;2022-07-23T05:30:31;100281.06;;;12.64;100.00
13486;BME280;6815;59.336;17.998;2022-07-23T05:32:56;100251.09;;;12.34;100.00
13486;BME280;6815;59.336;17.998;2022-07-23T05:35:22;100289.44;;;12.79;100.00
13486;BME280;6815;59.336;17.998;2022-07-23T05:37:47;100283.22;;;12.52;100.00
13486;BME280;6815;59.336;17.998;2022-07-23T05:40:13;100199.69;;;12.15;100.00
13486;BME280;6815;59.336;17.998;2022-07-23T05:42:40;100275.59;;;12.69;100.00
13486;BME280;6815;59.336;17.998;2022-07-23T05:45:06;100312.25;;;12.83;100.00
13486;BME280;6815;59.336;17.998;2022-07-23T05:47:49;100299.78;;;12.86;100.00
13486;BME280;6815;59.336;17.998;2022-07-23T05:50:15;100263.47;;;12.63;100.00
13486;BME280;6815;59.336;17.998;2022-07-23T05:52:41;100279.44;;;12.60;100.00
13486;BME280;6815;59.336;17.998;2022-07-23T05:55:08;100293.34;;;12.67;100.00
13486;BME280;6815;59.336;17.998;2022-07-23T05:57:34;100306.88;;;12.84;100.00
13486;BME280;6815;59.336;17.998;2022-07-23T05:59:59;100292.19;;;12.76;100.00
13486;BME280;6815;59.336;17.998;2022-07-23T06:02:25;100313.34;;;13.04;99.17
13486;BME280;6815;59.336;17.998;2022-07-23T06:04:51;100303.06;;;12.94;99.89
13486;BME280;6815;59.336;17.998;2022-07-23T06:07:17;100303.16;;;12.91;99.43
13486;BME280;6815;59.336;17.998;2022-07-23T06:09:42;100272.16;;;12.67;100.00
13486;BME280;6815;59.336;17.998;2022-07-23T06:12:09;100303.34;;;12.85;100.00
13486;BME280;6815;59.336;17.998;2022-07-23T06:14:34;100247.50;;;12.65;99.62
13486;BME280;6815;59.336;17.998;2022-07-23T06:16:59;100297.00;;;13.17;98.99
13486;BME280;6815;59.336;17.998;2022-07-23T06:19:25;100308.31;;;13.23;98.08
13486;BME280;6815;59.336;17.998;2022-07-23T06:21:51;100266.25;;;13.13;97.43
13486;BME280;6815;59.336;17.998;2022-07-23T06:24:16;100287.06;;;13.24;96.77
13486;BME280;6815;59.336;17.998;2022-07-23T06:26:42;100259.16;;;13.14;96.29
13486;BME280;6815;59.336;17.998;2022-07-23T06:29:07;100256.75;;;13.06;95.95
13486;BME280;6815;59.336;17.998;2022-07-23T06:31:33;100260.53;;;12.99;96.41
13486;BME280;6815;59.336;17.998;2022-07-23T06:33:58;100284.78;;;13.13;96.53
13486;BME280;6815;59.336;17.998;2022-07-23T06:36:24;100264.56;;;13.11;96.61
13486;BME280;6815;59.336;17.998;2022-07-23T06:38:49;100265.00;;;13.24;95.35
13486;BME280;6815;59.336;17.998;2022-07-23T06:41:14;100270.44;;;13.19;95.43
13486;BME280;6815;59.336;17.998;2022-07-23T06:43:40;100233.91;;;13.04;94.54
13486;BME280;6815;59.336;17.998;2022-07-23T06:46:05;100256.31;;;13.20;93.70
13486;BME280;6815;59.336;17.998;2022-07-23T06:48:30;100269.81;;;13.39;93.72
13486;BME280;6815;59.336;17.998;2022-07-23T06:50:56;100287.09;;;13.51;93.07
13486;BME280;6815;59.336;17.998;2022-07-23T06:53:21;100271.09;;;13.27;93.36
13486;BME280;6815;59.336;17.998;2022-07-23T06:55:47;100298.72;;;13.72;92.26
13486;BME280;6815;59.336;17.998;2022-07-23T06:58:12;100281.22;;;13.91;90.23
13486;BME280;6815;59.336;17.998;2022-07-23T07:00:39;100302.53;;;13.88;89.45
13486;BME280;6815;59.336;17.998;2022-07-23T07:03:05;100303.25;;;13.93;89.47
13486;BME280;6815;59.336;17.998;2022-07-23T07:05:31;100273.13;;;13.71;89.50
13486;BME280;6815;59.336;17.998;2022-07-23T07:07:57;100313.16;;;13.88;89.61
13486;BME280;6815;59.336;17.998;2022-07-23T07:10:22;100269.56;;;13.72;89.57
13486;BME280;6815;59.336;17.998;2022-07-23T07:12:48;100220.50;;;13.35;90.00
13486;BME280;6815;59.336;17.998;2022-07-23T07:15:14;100272.09;;;13.75;90.16
13486;BME280;6815;59.336;17.998;2022-07-23T07:17:39;100287.97;;;13.76;90.71
13486;BME280;6815;59.336;17.998;2022-07-23T07:20:05;100309.06;;;13.79;89.76
13486;BME280;6815;59.336;17.998;2022-07-23T07:22:31;100252.03;;;13.42;89.75
13486;BME280;6815;59.336;17.998;2022-07-23T07:24:56;100272.81;;;13.55;90.40
13486;BME280;6815;59.336;17.998;2022-07-23T07:27:22;100277.59;;;13.69;90.91
13486;BME280;6815;59.336;17.998;2022-07-23T07:29:49;100311.91;;;13.98;90.19
13486;BME280;6815;59.336;17.998;2022-07-23T07:32:14;100302.00;;;14.03;88.41
13486;BME280;6815;59.336;17.998;2022-07-23T07:34:39;100271.53;;;13.67;88.23
13486;BME280;6815;59.336;17.998;2022-07-23T07:37:05;100311.75;;;14.03;87.97
13486;BME280;6815;59.336;17.998;2022-07-23T07:39:30;100312.97;;;14.18;86.95
13486;BME280;6815;59.336;17.998;2022-07-23T07:41:56;100272.91;;;13.77;87.25
13486;BME280;6815;59.336;17.998;2022-07-23T07:44:21;100291.94;;;13.88;87.22
13486;BME280;6815;59.336;17.998;2022-07-23T07:46:46;100263.50;;;13.68;87.13
13486;BME280;6815;59.336;17.998;2022-07-23T07:49:12;100306.00;;;13.90;87.09
13486;BME280;6815;59.336;17.998;2022-07-23T07:51:37;100301.66;;;13.89;87.00
13486;BME280;6815;59.336;17.998;2022-07-23T07:54:03;100260.34;;;13.57;87.40
13486;BME280;6815;59.336;17.998;2022-07-23T07:56:29;100333.03;;;14.01;87.74
13486;BME280;6815;59.336;17.998;2022-07-23T07:58:54;100300.72;;;13.90;87.08
13486;BME280;6815;59.336;17.998;2022-07-23T08:01:20;100297.41;;;13.83;87.35
13486;BME280;6815;59.336;17.998;2022-07-23T08:03:46;100308.78;;;13.87;87.76
13486;BME280;6815;59.336;17.998;2022-07-23T08:06:12;100320.03;;;13.94;88.45
13486;BME280;6815;59.336;17.998;2022-07-23T08:08:37;100333.88;;;14.02;87.50
13486;BME280;6815;59.336;17.998;2022-07-23T08:11:03;100296.34;;;13.89;88.06
13486;BME280;6815;59.336;17.998;2022-07-23T08:13:28;100345.56;;;14.70;90.28
13486;BME280;6815;59.336;17.998;2022-07-23T08:15:54;100334.13;;;14.68;88.05
13486;BME280;6815;59.336;17.998;2022-07-23T08:18:20;100337.06;;;14.82;87.92
13486;BME280;6815;59.336;17.998;2022-07-23T08:20:45;100299.03;;;14.36;87.15
13486;BME280;6815;59.336;17.998;2022-07-23T08:23:11;100341.41;;;14.85;86.88
13486;BME280;6815;59.336;17.998;2022-07-23T08:25:42;100337.31;;;14.76;85.75
13486;BME280;6815;59.336;17.998;2022-07-23T08:28:10;100363.34;;;14.90;87.14
13486;BME280;6815;59.336;17.998;2022-07-23T08:30:36;100330.94;;;14.58;87.31
13486;BME280;6815;59.336;17.998;2022-07-23T08:33:14;100321.63;;;14.23;86.43
13486;BME280;6815;59.336;17.998;2022-07-23T08:35:43;100284.44;;;14.01;86.63
13486;BME280;6815;59.336;17.998;2022-07-23T08:38:13;100333.38;;;14.16;87.30
13486;BME280;6815;59.336;17.998;2022-07-23T08:40:46;100310.88;;;14.02;87.51
13486;BME280;6815;59.336;17.998;2022-07-23T08:43:15;100267.22;;;13.62;87.85
13486;BME280;6815;59.336;17.998;2022-07-23T08:45:46;100320.56;;;14.03;87.88
13486;BME280;6815;59.336;17.998;2022-07-23T08:48:17;100335.75;;;14.23;86.57
13486;BME280;6815;59.336;17.998;2022-07-23T08:50:53;100369.13;;;14.29;87.55
13486;BME280;6815;59.336;17.998;2022-07-23T08:53:21;100344.75;;;13.94;88.04
13486;BME280;6815;59.336;17.998;2022-07-23T08:55:50;100391.28;;;14.04;88.73
13486;BME280;6815;59.336;17.998;2022-07-23T08:58:17;100304.94;;;13.71;88.03
13486;BME280;6815;59.336;17.998;2022-07-23T09:00:43;100342.72;;;14.02;87.38
13486;BME280;6815;59.336;17.998;2022-07-23T09:03:21;100331.59;;;13.91;87.63
13486;BME280;6815;59.336;17.998;2022-07-23T09:05:47;100359.78;;;14.19;86.95
13486;BME280;6815;59.336;17.998;2022-07-23T09:10:51;100335.78;;;13.98;86.97
13486;BME280;6815;59.336;17.998;2022-07-23T09:13:30;100377.38;;;14.46;86.31
13486;BME280;6815;59.336;17.998;2022-07-23T09:15:58;100343.97;;;14.16;86.73
13486;BME280;6815;59.336;17.998;2022-07-23T09:26:45;100391.38;;;14.50;86.20
13486;BME280;6815;59.336;17.998;2022-07-23T09:29:25;100361.53;;;14.20;87.01
13486;BME280;6815;59.336;17.998;2022-07-23T09:31:56;100388.19;;;14.17;87.60
13486;BME280;6815;59.336;17.998;2022-07-23T09:34:35;100387.28;;;14.41;86.76
13486;BME280;6815;59.336;17.998;2022-07-23T09:37:15;100385.31;;;14.46;86.26
13486;BME280;6815;59.336;17.998;2022-07-23T09:39:41;100393.19;;;14.49;86.73
13486;BME280;6815;59.336;17.998;2022-07-23T09:44:44;100392.13;;;14.55;86.40
13486;BME280;6815;59.336;17.998;2022-07-23T09:47:10;100400.00;;;14.56;86.52
13486;BME280;6815;59.336;17.998;2022-07-23T09:49:36;100377.09;;;14.54;86.49
13486;BME280;6815;59.336;17.998;2022-07-23T09:52:02;100402.41;;;14.64;85.88
13486;BME280;6815;59.336;17.998;2022-07-23T09:54:36;100388.41;;;14.59;86.05
13486;BME280;6815;59.336;17.998;2022-07-23T09:57:09;100364.66;;;14.31;86.60
13486;BME280;6815;59.336;17.998;2022-07-23T09:59:39;100390.22;;;14.58;86.27
13486;BME280;6815;59.336;17.998;2022-07-23T10:02:06;100402.22;;;14.69;86.44
13486;BME280;6815;59.336;17.998;2022-07-23T10:04:32;100394.97;;;14.49;87.03
13486;BME280;6815;59.336;17.998;2022-07-23T10:06:59;100351.84;;;14.19;86.68
13486;BME280;6815;59.336;17.998;2022-07-23T10:09:34;100404.34;;;14.59;86.53
13486;BME280;6815;59.336;17.998;2022-07-23T10:12:04;100334.53;;;14.32;86.21
13486;BME280;6815;59.336;17.998;2022-07-23T10:14:49;100401.69;;;14.59;86.92
13486;BME280;6815;59.336;17.998;2022-07-23T10:17:15;100400.09;;;14.55;87.56
13486;BME280;6815;59.336;17.998;2022-07-23T10:19:41;100384.28;;;14.50;86.97
13486;BME280;6815;59.336;17.998;2022-07-23T10:22:10;100365.25;;;14.39;86.64
13486;BME280;6815;59.336;17.998;2022-07-23T10:27:51;100408.09;;;14.53;86.82
13486;BME280;6815;59.336;17.998;2022-07-23T10:33:09;100410.06;;;14.47;87.22
13486;BME280;6815;59.336;17.998;2022-07-23T10:38:25;100429.09;;;14.34;88.54
13486;BME280;6815;59.336;17.998;2022-07-23T10:41:11;100417.94;;;14.25;89.32
13486;BME280;6815;59.336;17.998;2022-07-23T10:43:37;100354.47;;;13.95;88.79
13486;BME280;6815;59.336;17.998;2022-07-23T10:46:34;100418.00;;;14.23;89.19
13486;BME280;6815;59.336;17.998;2022-07-23T10:49:22;100412.72;;;14.23;89.68
13486;BME280;6815;59.336;17.998;2022-07-23T10:52:25;100410.06;;;14.47;88.38
13486;BME280;6815;59.336;17.998;2022-07-23T10:54:56;100409.31;;;14.43;88.41
13486;BME280;6815;59.336;17.998;2022-07-23T10:57:50;100414.53;;;14.46;88.23
13486;BME280;6815;59.336;17.998;2022-07-23T11:00:20;100404.88;;;14.44;88.25
13486;BME280;6815;59.336;17.998;2022-07-23T11:02:48;100404.94;;;14.42;88.89
13486;BME280;6815;59.336;17.998;2022-07-23T11:05:16;100409.09;;;14.26;89.60
13486;BME280;6815;59.336;17.998;2022-07-23T11:10:33;100423.69;;;14.12;90.69
13486;BME280;6815;59.336;17.998;2022-07-23T11:34:32;100431.56;;;13.89;90.30
13486;BME280;6815;59.336;17.998;2022-07-23T11:37:00;100376.81;;;13.61;90.16
13486;BME280;6815;59.336;17.998;2022-07-23T11:39:27;100409.19;;;13.98;89.87
13486;BME280;6815;59.336;17.998;2022-07-23T11:41:53;100430.94;;;14.07;90.33
13486;BME280;6815;59.336;17.998;2022-07-23T11:44:35;100430.34;;;13.99;91.50
13486;BME280;6815;59.336;17.998;2022-07-23T11:47:06;100427.84;;;13.95;92.29
13486;BME280;6815;59.336;17.998;2022-07-23T11:49:32;100426.47;;;13.83;92.38
13486;BME280;6815;59.336;17.998;2022-07-23T11:52:04;100413.22;;;13.83;92.88
13486;BME280;6815;59.336;17.998;2022-07-23T11:54:31;100359.09;;;13.63;92.51
13486;BME280;6815;59.336;17.998;2022-07-23T11:56:57;100383.50;;;13.73;91.91
13486;BME280;6815;59.336;17.998;2022-07-23T11:59:24;100388.38;;;13.59;92.78
13486;BME280;6815;59.336;17.998;2022-07-23T12:02:02;100412.84;;;13.94;92.03
13486;BME280;6815;59.336;17.998;2022-07-23T12:04:45;100425.75;;;13.78;93.35
13486;BME280;6815;59.336;17.998;2022-07-23T12:07:32;100371.00;;;13.50;92.65
13486;BME280;6815;59.336;17.998;2022-07-23T12:10:02;100409.16;;;13.73;92.70
13486;BME280;6815;59.336;17.998;2022-07-23T12:12:35;100433.41;;;13.87;92.42
13486;BME280;6815;59.336;17.998;2022-07-23T12:15:01;100426.41;;;13.84;92.74
13486;BME280;6815;59.336;17.998;2022-07-23T12:17:32;100346.31;;;13.22;92.61
13486;BME280;6815;59.336;17.998;2022-07-23T12:19:59;100246.56;;;12.67;91.88
13486;BME280;6815;59.336;17.998;2022-07-23T12:22:34;100407.78;;;13.61;91.79
13486;BME280;6815;59.336;17.998;2022-07-23T12:25:11;100369.88;;;13.31;91.50
13486;BME280;6815;59.336;17.998;2022-07-23T12:27:38;100405.16;;;13.59;90.16
13486;BME280;6815;59.336;17.998;2022-07-23T12:30:25;100441.53;;;13.82;90.36
13486;BME280;6815;59.336;17.998;2022-07-23T12:32:54;100420.84;;;13.65;90.49
13486;BME280;6815;59.336;17.998;2022-07-23T12:35:20;100432.22;;;13.96;90.02
13486;BME280;6815;59.336;17.998;2022-07-23T12:37:49;100433.25;;;13.92;90.02
13486;BME280;6815;59.336;17.998;2022-07-23T12:40:48;100420.66;;;13.72;90.38
13486;BME280;6815;59.336;17.998;2022-07-23T12:43:23;100434.59;;;14.03;89.33
13486;BME280;6815;59.336;17.998;2022-07-23T12:45:50;100432.47;;;13.88;90.16
13486;BME280;6815;59.336;17.998;2022-07-23T12:48:21;100391.56;;;13.70;89.86
13486;BME280;6815;59.336;17.998;2022-07-23T12:51:28;100420.22;;;13.85;89.90
13486;BME280;6815;59.336;17.998;2022-07-23T12:53:49;100434.50;;;14.06;89.32
13486;BME280;6815;59.336;17.998;2022-07-23T12:56:17;100428.63;;;13.98;88.63
13486;BME280;6815;59.336;17.998;2022-07-23T12:58:58;100434.66;;;14.02;87.39
13486;BME280;6815;59.336;17.998;2022-07-23T13:01:24;100443.75;;;13.95;87.11
13486;BME280;6815;59.336;17.998;2022-07-23T13:04:07;100447.09;;;14.00;87.29
13486;BME280;6815;59.336;17.998;2022-07-23T13:06:37;100445.72;;;14.15;86.96
13486;BME280;6815;59.336;17.998;2022-07-23T13:09:05;100443.91;;;14.17;86.91
13486;BME280;6815;59.336;17.998;2022-07-23T13:11:31;100391.66;;;13.67;86.93
13486;BME280;6815;59.336;17.998;2022-07-23T13:13:57;100409.59;;;13.85;86.92
13486;BME280;6815;59.336;17.998;2022-07-23T13:16:23;100439.81;;;14.06;86.51
13486;BME280;6815;59.336;17.998;2022-07-23T13:18:49;100367.19;;;13.59;86.59
13486;BME280;6815;59.336;17.998;2022-07-23T13:21:15;100445.09;;;14.06;86.12
13486;BME280;6815;59.336;17.998;2022-07-23T13:23:41;100426.47;;;13.83;85.25
13486;BME280;6815;59.336;17.998;2022-07-23T13:26:07;100453.47;;;13.94;85.55
13486;BME280;6815;59.336;17.998;2022-07-23T13:28:32;100407.38;;;13.73;85.12
13486;BME280;6815;59.336;17.998;2022-07-23T13:30:57;100405.59;;;13.72;84.91
13486;BME280;6815;59.336;17.998;2022-07-23T13:33:24;100464.78;;;14.01;85.16